Time;durP1;ratioP1;P1;durP2;ratioP2;P2;SDS_P1;SDS_P2;PMS_P1;PMS_P2;Temp;Humidity;BMP_temperature;BMP_pressure;BME280_temperature;BME280_humidity;BME280_pressure;Samples;Min_cycle;Max_cycle;Signal;HPM_P1;HPM_P2
2022/03/08 00:01:47;;;;;;;29.10;13.83;;;;;;;1.01;100.00;102198.88;7393593;19;20737;-46
2022/03/08 00:04:16;;;;;;;22.77;10.30;;;;;;;0.94;100.00;102192.28;7395116;19;20414;-46
2022/03/08 00:06:46;;;;;;;17.23;9.50;;;;;;;0.84;100.00;102189.53;7392691;19;20781;-49
2022/03/08 00:09:15;;;;;;;17.10;8.60;;;;;;;0.77;100.00;102193.97;7396040;19;20135;-45
2022/03/08 00:11:45;;;;;;;147.97;57.53;;;;;;;0.97;100.00;102184.09;7393000;19;20412;-50
2022/03/08 00:14:17;;;;;;;78.93;35.27;;;;;;;0.74;100.00;102180.97;7394189;19;20470;-53
2022/03/08 00:16:49;;;;;;;24.97;11.90;;;;;;;0.39;100.00;102179.06;7393444;19;20428;-53
2022/03/08 00:19:19;;;;;;;30.10;14.85;;;;;;;0.42;100.00;102178.47;7395963;19;20375;-47
2022/03/08 00:21:48;;;;;;;24.67;12.98;;;;;;;0.44;100.00;102181.16;7392460;19;20186;-46
2022/03/08 00:24:18;;;;;;;25.73;12.03;;;;;;;0.38;100.00;102172.19;7395693;19;20166;-46
2022/03/08 00:26:48;;;;;;;18.48;10.55;;;;;;;0.39;100.00;102175.59;7394649;19;20430;-46
2022/03/08 00:29:17;;;;;;;19.52;10.23;;;;;;;0.41;100.00;102171.56;7398596;19;20139;-46
2022/03/08 00:31:49;;;;;;;24.27;13.73;;;;;;;0.43;100.00;102169.19;7393234;19;20200;-47
2022/03/08 00:34:19;;;;;;;28.40;13.90;;;;;;;0.43;100.00;102174.28;7395946;19;20161;-46
2022/03/08 00:36:49;;;;;;;24.67;12.20;;;;;;;0.63;100.00;102174.75;7392224;19;20190;-47
2022/03/08 00:39:18;;;;;;;20.08;8.45;;;;;;;0.64;100.00;102173.09;7395956;19;20135;-45
2022/03/08 00:41:48;;;;;;;21.10;10.77;;;;;;;0.61;100.00;102171.13;7392293;19;20201;-48
2022/03/08 00:44:17;;;;;;;21.75;9.93;;;;;;;0.48;100.00;102168.06;7399133;19;21035;-51
2022/03/08 00:46:50;;;;;;;17.80;9.70;;;;;;;0.35;100.00;102170.91;7392654;19;20198;-49
2022/03/08 00:49:19;;;;;;;22.55;10.10;;;;;;;0.06;100.00;102174.72;7395626;19;20411;-45
2022/03/08 00:51:49;;;;;;;18.92;10.43;;;;;;;0.06;100.00;102167.09;7392595;19;20530;-47
2022/03/08 00:54:18;;;;;;;19.20;10.77;;;;;;;-0.09;100.00;102171.47;7395436;19;20509;-46
2022/03/08 00:56:48;;;;;;;21.42;11.20;;;;;;;-0.12;100.00;102171.09;7390741;19;20664;-48
2022/03/08 00:59:17;;;;;;;23.25;11.25;;;;;;;-0.15;100.00;102170.78;7395880;19;20138;-45
2022/03/08 01:01:50;;;;;;;19.90;10.50;;;;;;;-0.26;100.00;102172.16;7392526;19;21172;-45
2022/03/08 01:04:19;;;;;;;14.68;8.95;;;;;;;-0.24;100.00;102170.69;7395075;19;20182;-47
2022/03/08 01:06:49;;;;;;;19.02;10.27;;;;;;;-0.36;100.00;102165.19;7391412;19;20201;-46
2022/03/08 01:09:18;;;;;;;15.90;9.73;;;;;;;-0.43;100.00;102163.63;7395369;19;20133;-47
2022/03/08 01:11:48;;;;;;;14.00;8.40;;;;;;;-0.28;100.00;102153.34;7388453;19;20187;-52
2022/03/08 01:14:17;;;;;;;16.13;8.50;;;;;;;-0.16;100.00;102153.75;7394508;19;20163;-50
2022/03/08 01:16:49;;;;;;;14.63;9.10;;;;;;;-0.16;100.00;102148.66;7384770;19;20194;-46
2022/03/08 01:19:19;;;;;;;14.68;8.65;;;;;;;-0.12;100.00;102149.94;7394882;19;20656;-48
2022/03/08 01:21:49;;;;;;;14.32;8.10;;;;;;;0.05;100.00;102146.66;7391789;19;20190;-50
2022/03/08 01:24:18;;;;;;;14.45;8.10;;;;;;;0.30;100.00;102151.78;7394245;19;20162;-47
2022/03/08 01:26:48;;;;;;;15.38;7.55;;;;;;;0.29;100.00;102145.78;7388637;19;20690;-47
2022/03/08 01:29:17;;;;;;;13.60;6.95;;;;;;;0.37;100.00;102142.41;7394305;19;20131;-47
2022/03/08 01:31:50;;;;;;;11.18;6.32;;;;;;;0.16;100.00;102148.69;7391398;19;20195;-45
2022/03/08 01:34:19;;;;;;;13.18;7.07;;;;;;;-0.16;100.00;102144.50;7394371;19;20515;-45
2022/03/08 01:36:49;;;;;;;14.20;7.22;;;;;;;-0.17;100.00;102147.78;7390775;19;20201;-46
2022/03/08 01:39:18;;;;;;;11.30;6.13;;;;;;;-0.31;100.00;102147.94;7394184;19;20458;-48
2022/03/08 01:41:48;;;;;;;14.82;6.95;;;;;;;0.03;100.00;102143.03;7391167;19;20191;-45
2022/03/08 01:44:20;;;;;;;16.17;7.57;;;;;;;0.16;100.00;102138.53;7393994;19;20173;-48
2022/03/08 01:46:52;;;;;;;14.23;6.97;;;;;;;0.13;100.00;102143.28;7390543;19;20190;-47
2022/03/08 01:49:21;;;;;;;14.07;7.03;;;;;;;0.12;100.00;102141.47;7393921;19;20133;-48
2022/03/08 01:51:51;;;;;;;14.05;7.75;;;;;;;-0.12;100.00;102139.78;7389772;19;20204;-47
2022/03/08 01:54:20;;;;;;;14.02;7.22;;;;;;;-0.08;100.00;102131.72;7393345;19;20162;-47
2022/03/08 01:56:50;;;;;;;10.95;6.32;;;;;;;-0.09;100.00;102129.94;7391324;19;20196;-46
2022/03/08 01:59:19;;;;;;;15.15;7.38;;;;;;;0.26;100.00;102138.75;7393571;19;20166;-48
2022/03/08 02:01:52;;;;;;;15.57;7.40;;;;;;;0.05;100.00;102128.88;7388705;19;20194;-46
2022/03/08 02:04:21;;;;;;;12.15;6.80;;;;;;;-0.10;100.00;102129.03;7393078;19;20162;-47
2022/03/08 02:06:51;;;;;;;15.60;7.68;;;;;;;-0.12;100.00;102129.63;7391017;19;20185;-45
2022/03/08 02:09:21;;;;;;;14.35;7.38;;;;;;;-0.17;100.00;102119.88;7393453;19;20138;-46
2022/03/08 02:11:50;;;;;;;13.48;7.07;;;;;;;-0.05;100.00;102127.00;7390168;19;20202;-46
2022/03/08 02:14:21;;;;;;;13.65;6.65;;;;;;;0.03;100.00;102126.16;7392866;19;20158;-46
2022/03/08 02:16:53;;;;;;;13.02;7.15;;;;;;;-0.04;100.00;102118.66;7389070;19;20209;-48
2022/03/08 02:19:23;;;;;;;12.02;6.90;;;;;;;-0.29;100.00;102113.47;7391715;19;20127;-45
2022/03/08 02:21:56;;;;;;;10.63;5.70;;;;;;;-0.46;100.00;102117.63;7392874;19;20201;-47
2022/03/08 02:24:25;;;;;;;14.75;6.63;;;;;;;-0.25;100.00;102113.09;7392830;19;20169;-47
2022/03/08 02:26:55;;;;;;;13.63;6.97;;;;;;;0.01;100.00;102109.88;7390050;19;20196;-46
2022/03/08 02:29:24;;;;;;;11.68;7.00;;;;;;;-0.10;100.00;102112.91;7393868;19;20477;-48
2022/03/08 02:31:54;;;;;;;15.43;7.15;;;;;;;-0.10;100.00;102105.31;7389965;19;20209;-45
2022/03/08 02:34:23;;;;;;;13.27;6.25;;;;;;;-0.12;100.00;102119.47;7394750;19;20559;-46
2022/03/08 02:37:04;;;;;;;11.82;6.43;;;;;;;0.05;100.00;102104.38;7389333;19;20200;-47
2022/03/08 02:39:34;;;;;;;11.38;6.38;;;;;;;0.24;100.00;102106.31;7395546;19;20135;-49
2022/03/08 02:42:04;;;;;;;15.68;6.88;;;;;;;0.08;100.00;102099.66;7390020;19;20206;-45
2022/03/08 02:44:34;;;;;;;13.73;6.90;;;;;;;-0.04;100.00;102103.41;7392412;19;20159;-48
2022/03/08 02:47:04;;;;;;;15.05;6.93;;;;;;;-0.02;100.00;102097.78;7386755;19;20254;-47
2022/03/08 02:49:34;;;;;;;13.10;6.70;;;;;;;-0.14;100.00;102102.44;7392127;19;20150;-46
2022/03/08 02:52:06;;;;;;;11.32;6.35;;;;;;;-0.06;100.00;102094.75;7385611;19;20190;-50
2022/03/08 02:54:36;;;;;;;14.77;7.43;;;;;;;0.25;100.00;102097.97;7392100;19;20158;-46
2022/03/08 02:57:06;;;;;;;12.50;6.97;;;;;;;0.13;100.00;102097.59;7388722;19;20269;-47
2022/03/08 02:59:35;;;;;;;10.82;5.80;;;;;;;0.36;100.00;102096.56;7392344;19;20138;-49
2022/03/08 03:02:05;;;;;;;11.32;6.57;;;;;;;0.20;100.00;102097.47;7389384;19;20190;-46
2022/03/08 03:04:36;;;;;;;13.77;6.88;;;;;;;-0.14;100.00;102101.53;7391513;19;20163;-46
2022/03/08 03:07:08;;;;;;;11.90;6.65;;;;;;;-0.05;100.00;102101.63;7389455;19;20664;-47
2022/03/08 03:09:37;;;;;;;13.07;6.63;;;;;;;-0.02;100.00;102104.47;7392047;19;20202;-47
2022/03/08 03:12:09;;;;;;;10.82;6.80;;;;;;;-0.16;100.00;102101.38;7387037;19;20190;-49
2022/03/08 03:14:38;;;;;;;12.60;6.90;;;;;;;-0.36;100.00;102104.31;7391279;19;20173;-49
2022/03/08 03:17:07;;;;;;;13.93;7.18;;;;;;;-0.29;100.00;102105.88;7388913;19;20653;-52
2022/03/08 03:19:37;;;;;;;16.77;6.75;;;;;;;-0.43;100.00;102107.84;7391575;19;20127;-46
2022/03/08 03:22:10;;;;;;;12.55;6.28;;;;;;;-0.46;100.00;102106.59;7387171;19;20528;-45
2022/03/08 03:24:39;;;;;;;12.82;6.60;;;;;;;-0.40;100.00;102107.25;7390821;19;20158;-48
2022/03/08 03:27:09;;;;;;;16.42;7.53;;;;;;;-0.59;100.00;102097.66;7388362;19;20194;-47
2022/03/08 03:29:38;;;;;;;14.35;7.22;;;;;;;-0.47;100.00;102100.63;7395112;19;20123;-46
2022/03/08 03:32:09;;;;;;;12.32;6.32;;;;;;;-0.50;100.00;102099.38;7395600;19;20186;-46
2022/03/08 03:34:38;;;;;;;9.70;5.68;;;;;;;-0.71;100.00;102094.69;7397839;19;20159;-47
2022/03/08 03:37:10;;;;;;;14.45;6.20;;;;;;;-0.75;100.00;102087.50;7395620;19;20615;-45
2022/03/08 03:39:40;;;;;;;11.82;6.60;;;;;;;-0.66;100.00;102090.13;7398232;19;20139;-46
2022/03/08 03:42:09;;;;;;;14.30;7.45;;;;;;;-0.72;100.00;102085.28;7395536;19;20194;-47
2022/03/08 03:44:39;;;;;;;16.75;7.63;;;;;;;-0.71;100.00;102087.06;7397836;19;20174;-46
2022/03/08 03:47:09;;;;;;;12.60;7.97;;;;;;;-0.82;100.00;102087.56;7395154;19;20273;-46
2022/03/08 03:49:38;;;;;;;16.23;8.05;;;;;;;-0.84;100.00;102087.41;7397768;19;20138;-47
2022/03/08 03:52:10;;;;;;;14.52;8.38;;;;;;;-0.97;100.00;102091.88;7394995;19;20194;-46
2022/03/08 03:54:40;;;;;;;15.60;8.70;;;;;;;-1.03;100.00;102094.59;7397240;19;20163;-46
2022/03/08 03:57:11;;;;;;;14.80;8.65;;;;;;;-1.17;100.00;102105.78;7393988;19;20194;-46
2022/03/08 03:59:41;;;;;;;14.93;8.65;;;;;;;-1.28;100.00;102102.03;7400125;19;20226;-46
2022/03/08 04:02:11;;;;;;;16.15;9.13;;;;;;;-1.31;100.00;102101.69;7394533;19;20663;-47
2022/03/08 04:04:40;;;;;;;14.88;7.88;;;;;;;-1.17;100.00;102093.09;7396597;19;20171;-49
2022/03/08 04:07:12;;;;;;;17.85;8.85;;;;;;;-1.09;100.00;102093.94;7392614;19;20194;-50
2022/03/08 04:09:42;;;;;;;15.55;8.90;;;;;;;-1.23;100.00;102097.50;7397112;19;20477;-49
2022/03/08 04:12:12;;;;;;;16.48;9.10;;;;;;;-1.36;100.00;102097.75;7394223;19;20201;-45
2022/03/08 04:14:41;;;;;;;19.33;9.32;;;;;;;-1.39;100.00;102102.47;7400023;19;20166;-46
2022/03/08 04:17:10;;;;;;;18.95;9.27;;;;;;;-1.14;100.00;102095.97;7393619;19;20695;-45
2022/03/08 04:19:40;;;;;;;16.25;8.63;;;;;;;-1.20;100.00;102097.81;7396857;19;20482;-46
2022/03/08 04:22:12;;;;;;;18.65;9.50;;;;;;;-1.19;100.00;102096.19;7394107;19;20196;-47
2022/03/08 04:24:42;;;;;;;17.33;9.85;;;;;;;-1.29;100.00;102099.34;7395946;19;20164;-48
2022/03/08 04:27:11;;;;;;;18.08;9.48;;;;;;;-1.11;100.00;102095.41;7393409;19;20194;-48
2022/03/08 04:29:40;;;;;;;15.77;9.35;;;;;;;-0.93;100.00;102090.56;7401117;19;20158;-46
2022/03/08 04:32:11;;;;;;;18.75;9.82;;;;;;;-1.07;100.00;102096.63;7393777;19;20211;-48
2022/03/08 04:34:40;;;;;;;18.13;9.13;;;;;;;-1.33;100.00;102103.16;7395600;19;20169;-46
2022/03/08 04:37:12;;;;;;;16.40;9.05;;;;;;;-1.45;100.00;102107.75;7395931;19;20190;-46
2022/03/08 04:39:42;;;;;;;19.55;9.57;;;;;;;-1.46;100.00;102110.09;7396025;19;20134;-46
2022/03/08 04:42:11;;;;;;;16.27;8.68;;;;;;;-1.23;100.00;102105.09;7391238;19;20197;-46
2022/03/08 04:44:41;;;;;;;19.05;9.55;;;;;;;-1.06;100.00;102109.47;7400047;19;20247;-48
2022/03/08 04:47:10;;;;;;;16.10;8.60;;;;;;;-1.10;100.00;102107.34;7393401;19;20733;-48
2022/03/08 04:49:40;;;;;;;16.30;9.65;;;;;;;-1.31;100.00;102116.91;7396113;19;20482;-46
2022/03/08 04:52:09;;;;;;;17.38;9.50;;;;;;;-1.44;100.00;102119.66;7392730;19;20189;-46
2022/03/08 04:54:41;;;;;;;17.25;9.38;;;;;;;-1.29;100.00;102120.47;7395422;19;20163;-48
2022/03/08 04:57:11;;;;;;;15.50;8.80;;;;;;;-1.27;100.00;102116.47;7392541;19;20190;-49
2022/03/08 04:59:40;;;;;;;17.30;9.82;;;;;;;-1.29;100.00;102125.56;7395536;19;20127;-52
2022/03/08 05:02:10;;;;;;;16.73;9.00;;;;;;;-1.29;100.00;102125.56;7392640;19;20193;-46
2022/03/08 05:04:40;;;;;;;14.95;8.90;;;;;;;-1.18;100.00;102120.78;7394987;19;20158;-46
2022/03/08 05:07:09;;;;;;;16.63;8.98;;;;;;;-1.28;100.00;102119.75;7392746;19;20211;-50
2022/03/08 05:09:41;;;;;;;20.92;8.77;;;;;;;-1.36;100.00;102120.53;7395557;19;20127;-46
2022/03/08 05:12:12;;;;;;;15.15;8.10;;;;;;;-1.43;100.00;102138.31;7392268;19;20554;-50
2022/03/08 05:14:41;;;;;;;19.42;8.95;;;;;;;-1.52;100.00;102134.03;7394834;19;20159;-48
2022/03/08 05:17:11;;;;;;;16.05;8.98;;;;;;;-1.41;100.00;102131.78;7390177;19;20193;-49
2022/03/08 05:19:40;;;;;;;16.42;8.65;;;;;;;-1.51;100.00;102127.31;7395281;19;20127;-47
2022/03/08 05:22:10;;;;;;;15.93;8.55;;;;;;;-0.93;100.00;102126.03;7391714;19;20261;-48
2022/03/08 05:24:42;;;;;;;16.45;8.10;;;;;;;-0.05;100.00;102125.34;7394207;19;20166;-50
2022/03/08 05:27:12;;;;;;;22.13;11.93;;;;;;;0.30;100.00;102136.56;7390885;19;20198;-46
2022/03/08 05:29:42;;;;;;;42.00;18.88;;;;;;;-0.11;100.00;102141.56;7394445;19;20134;-47
2022/03/08 05:32:11;;;;;;;67.75;32.13;;;;;;;0.21;100.00;102136.47;7385995;19;20193;-49
2022/03/08 05:34:41;;;;;;;53.63;25.58;;;;;;;0.66;100.00;102143.66;7394163;19;20163;-46
2022/03/08 05:37:10;;;;;;;72.07;33.97;;;;;;;1.11;100.00;102147.34;7391376;19;20190;-46
2022/03/08 05:39:43;;;;;;;32.55;15.80;;;;;;;-0.18;100.00;102145.06;7392608;19;20395;-47
2022/03/08 05:42:12;;;;;;;41.10;13.68;;;;;;;-0.90;100.00;102159.31;7389786;19;20197;-46
2022/03/08 05:44:42;;;;;;;18.33;9.27;;;;;;;-1.28;100.00;102157.75;7393900;19;20513;-49
2022/03/08 05:47:11;;;;;;;20.25;11.20;;;;;;;-1.43;100.00;102145.91;7391651;19;20600;-49
2022/03/08 05:49:41;;;;;;;15.20;8.70;;;;;;;-1.59;100.00;102145.81;7393957;19;20127;-46
2022/03/08 05:52:10;;;;;;;18.67;9.00;;;;;;;-1.70;100.00;102155.63;7390380;19;20529;-46
2022/03/08 05:54:42;;;;;;;19.35;9.00;;;;;;;-1.70;100.00;102153.09;7393566;19;20518;-47
2022/03/08 05:57:12;;;;;;;31.55;14.73;;;;;;;-1.53;100.00;102149.03;7390731;19;21006;-47
2022/03/08 05:59:41;;;;;;;54.22;25.85;;;;;;;0.34;100.00;102144.66;7392167;19;20126;-47
2022/03/08 06:02:11;;;;;;;72.88;29.77;;;;;;;0.72;100.00;102144.31;7390685;19;20193;-47
2022/03/08 06:04:41;;;;;;;38.35;18.73;;;;;;;0.05;100.00;102150.06;7397469;19;20510;-47
2022/03/08 06:07:10;;;;;;;30.45;14.48;;;;;;;-0.68;100.00;102149.91;7390578;19;20649;-46
2022/03/08 06:09:42;;;;;;;30.00;16.05;;;;;;;-0.95;100.00;102156.28;7393477;19;20134;-46
2022/03/08 06:12:12;;;;;;;15.98;8.63;;;;;;;-1.19;100.00;102154.47;7390150;19;20194;-45
2022/03/08 06:14:42;;;;;;;20.58;9.43;;;;;;;-1.41;100.00;102150.41;7392937;19;20162;-47
2022/03/08 06:17:11;;;;;;;15.00;8.18;;;;;;;-1.50;100.00;102155.34;7390273;19;20201;-46
2022/03/08 06:19:41;;;;;;;19.00;9.60;;;;;;;-1.60;100.00;102157.56;7391655;19;20477;-46
2022/03/08 06:22:10;;;;;;;14.27;7.82;;;;;;;-1.67;100.00;102153.44;7389335;19;20257;-48
2022/03/08 06:24:43;;;;;;;14.82;8.48;;;;;;;-1.72;100.00;102151.09;7392659;19;20162;-46
2022/03/08 06:27:13;;;;;;;16.65;8.75;;;;;;;-1.74;100.00;102157.63;7388508;19;20532;-48
2022/03/08 06:29:42;;;;;;;16.55;8.45;;;;;;;-1.71;100.00;102157.97;7393272;19;20131;-47
2022/03/08 06:32:12;;;;;;;23.63;11.25;;;;;;;-1.65;100.00;102153.59;7391013;19;20204;-51
2022/03/08 06:34:42;;;;;;;22.23;10.38;;;;;;;-1.71;100.00;102156.34;7392187;19;20165;-51
2022/03/08 06:37:12;;;;;;;17.33;9.88;;;;;;;-1.73;100.00;102150.22;7389285;19;20655;-47
2022/03/08 06:39:44;;;;;;;15.73;8.93;;;;;;;-1.70;100.00;102149.66;7391346;19;20238;-47
2022/03/08 06:42:13;;;;;;;15.30;8.75;;;;;;;-1.66;100.00;102154.31;7389330;19;20194;-47
2022/03/08 06:44:43;;;;;;;15.90;7.43;;;;;;;-1.67;100.00;102148.38;7391844;19;20505;-49
2022/03/08 06:47:13;;;;;;;14.75;8.52;;;;;;;-1.65;100.00;102148.53;7389518;19;20194;-47
2022/03/08 06:49:44;;;;;;;15.90;8.13;;;;;;;-1.64;100.00;102146.19;7392352;19;20146;-49
2022/03/08 06:52:13;;;;;;;18.77;9.38;;;;;;;-1.60;100.00;102141.47;7390570;19;20190;-47
2022/03/08 06:54:45;;;;;;;16.00;8.85;;;;;;;-1.64;100.00;102145.31;7391678;19;20633;-47
2022/03/08 06:57:15;;;;;;;15.23;8.70;;;;;;;-1.60;100.00;102149.97;7389197;19;20540;-48
2022/03/08 06:59:44;;;;;;;13.40;7.28;;;;;;;-1.53;100.00;102149.91;7390601;19;20480;-47
2022/03/08 07:02:14;;;;;;;15.57;7.78;;;;;;;-1.48;100.00;102157.16;7388327;19;20257;-48
2022/03/08 07:04:44;;;;;;;13.77;7.50;;;;;;;-1.44;100.00;102151.72;7397508;19;20614;-48
2022/03/08 07:07:13;;;;;;;20.88;9.27;;;;;;;-1.38;100.00;102145.69;7397970;19;20192;-51
2022/03/08 07:09:46;;;;;;;23.48;9.50;;;;;;;-1.27;100.00;102134.22;7400141;19;20130;-46
2022/03/08 07:12:15;;;;;;;17.38;8.05;;;;;;;-1.26;100.00;102135.13;7397361;19;20194;-46
2022/03/08 07:14:44;;;;;;;14.68;7.88;;;;;;;-1.22;100.00;102140.69;7397826;19;20222;-46
2022/03/08 07:17:14;;;;;;;17.25;8.82;;;;;;;-1.13;100.00;102145.00;7396621;19;20190;-51
2022/03/08 07:19:44;;;;;;;16.55;8.23;;;;;;;-1.06;100.00;102147.50;7396274;19;20135;-46
2022/03/08 07:22:15;;;;;;;21.83;10.50;;;;;;;-0.94;100.00;102134.38;7394581;19;20196;-48
2022/03/08 07:24:47;;;;;;;36.90;13.23;;;;;;;-0.78;100.00;102142.91;7397988;19;20622;-47
2022/03/08 07:27:17;;;;;;;22.23;11.30;;;;;;;-0.66;100.00;102147.53;7393271;19;20649;-48
2022/03/08 07:29:47;;;;;;;19.42;8.82;;;;;;;-0.60;100.00;102144.06;7398446;19;20139;-47
2022/03/08 07:32:17;;;;;;;12.98;7.10;;;;;;;-0.48;100.00;102141.03;7390746;19;20563;-49
2022/03/08 07:34:46;;;;;;;14.43;8.05;;;;;;;-0.43;100.00;102148.41;7397144;19;20169;-47
2022/03/08 07:37:16;;;;;;;17.13;8.20;;;;;;;-0.31;100.00;102150.47;7393456;19;20186;-47
2022/03/08 07:39:48;;;;;;;14.98;7.40;;;;;;;-0.28;100.00;102148.25;7396518;19;20134;-45
2022/03/08 07:42:17;;;;;;;14.10;7.40;;;;;;;-0.26;100.00;102150.97;7395138;19;20555;-48
2022/03/08 07:44:47;;;;;;;11.85;6.65;;;;;;;-0.17;100.00;102152.84;7396993;19;20621;-46
2022/03/08 07:47:17;;;;;;;14.30;7.45;;;;;;;-0.04;100.00;102149.09;7394560;19;20214;-46
2022/03/08 07:49:46;;;;;;;13.80;6.55;;;;;;;0.16;100.00;102158.84;7397602;19;20138;-47
2022/03/08 07:52:21;;;;;;;10.75;6.55;;;;;;;0.26;100.00;102156.53;7394063;19;20202;-46
2022/03/08 07:54:53;;;;;;;13.13;7.47;;;;;;;0.32;100.00;102155.38;7396534;19;20159;-48
2022/03/08 07:57:22;;;;;;;13.23;6.65;;;;;;;0.40;100.00;102159.63;7393319;19;20258;-49
2022/03/08 07:59:52;;;;;;;13.90;7.10;;;;;;;0.48;100.00;102156.28;7395874;19;20127;-46
2022/03/08 08:02:21;;;;;;;12.98;6.10;;;;;;;0.55;100.00;102160.34;7393465;19;20653;-48
2022/03/08 08:04:51;;;;;;;12.77;6.63;;;;;;;0.61;100.00;102155.91;7396036;19;20161;-48
2022/03/08 08:07:21;;;;;;;46.90;22.75;;;;;;;0.99;100.00;102162.25;7391051;19;20660;-49
2022/03/08 08:09:53;;;;;;;205.05;87.32;;;;;;;1.88;100.00;102161.81;7398731;19;20130;-48
2022/03/08 08:12:22;;;;;;;28.07;14.17;;;;;;;1.93;100.00;102164.81;7394519;19;20203;-48
2022/03/08 08:14:52;;;;;;;20.13;8.43;;;;;;;1.63;100.00;102168.66;7394410;19;20412;-47
2022/03/08 08:17:22;;;;;;;15.07;7.80;;;;;;;1.86;100.00;102163.34;7394780;19;20419;-48
2022/03/08 08:19:51;;;;;;;11.50;6.07;;;;;;;1.78;100.00;102169.31;7395589;19;20390;-49
2022/03/08 08:22:21;;;;;;;11.83;6.33;;;;;;;1.73;100.00;102172.28;7393443;19;20426;-49
2022/03/08 08:24:53;;;;;;;15.03;6.00;;;;;;;1.78;100.00;102169.31;7398866;19;20850;-48
2022/03/08 08:27:22;;;;;;;14.93;5.50;;;;;;;1.91;100.00;102169.78;7393530;19;20413;-47
2022/03/08 08:29:51;;;;;;;13.77;6.10;;;;;;;1.99;100.00;102171.44;7396313;19;20383;-48
2022/03/08 08:32:21;;;;;;;14.07;6.80;;;;;;;2.22;100.00;102172.81;7391270;19;20464;-52
2022/03/08 08:34:51;;;;;;;12.80;6.07;;;;;;;2.52;100.00;102171.44;7395321;19;20416;-50
2022/03/08 08:37:20;;;;;;;37.67;14.20;;;;;;;2.86;100.00;102178.03;7394652;19;20435;-46
2022/03/08 08:39:52;;;;;;;21.97;9.80;;;;;;;3.09;100.00;102186.19;7395075;19;20371;-48
2022/03/08 08:42:22;;;;;;;102.73;31.20;;;;;;;2.96;100.00;102186.69;7392784;19;20391;-47
2022/03/08 08:44:51;;;;;;;47.40;17.83;;;;;;;3.07;100.00;102177.50;7394944;19;20411;-49
2022/03/08 08:47:21;;;;;;;39.37;14.73;;;;;;;3.17;100.00;102175.84;7393069;19;20949;-48
2022/03/08 08:49:51;;;;;;;109.33;34.73;;;;;;;3.24;100.00;102175.66;7394842;19;20405;-46
2022/03/08 08:52:20;;;;;;;55.60;16.73;;;;;;;3.38;100.00;102175.28;7394790;19;20412;-46
2022/03/08 08:54:52;;;;;;;73.83;20.07;;;;;;;3.53;100.00;102167.25;7394742;19;20395;-47
2022/03/08 08:57:22;;;;;;;167.83;44.27;;;;;;;3.57;100.00;102165.88;7392851;19;20402;-46
2022/03/08 08:59:51;;;;;;;449.30;123.97;;;;;;;3.94;100.00;102165.84;7394211;19;20423;-47
2022/03/08 09:02:21;;;;;;;23.53;9.80;;;;;;;4.02;100.00;102164.88;7391142;19;20419;-47
2022/03/08 09:04:51;;;;;;;72.03;24.07;;;;;;;4.04;100.00;102158.25;7394437;19;20426;-46
2022/03/08 09:07:20;;;;;;;16.10;6.20;;;;;;;3.99;100.00;102160.38;7388606;19;20825;-47
2022/03/08 09:09:52;;;;;;;42.20;13.93;;;;;;;4.05;100.00;102165.16;7394622;19;20398;-48
2022/03/08 09:12:22;;;;;;;17.17;3.90;;;;;;;4.14;100.00;102168.56;7391816;19;20421;-46
2022/03/08 09:14:51;;;;;;;9.37;4.60;;;;;;;4.25;100.00;102158.41;7393970;19;20491;-50
2022/03/08 09:17:21;;;;;;;24.73;10.03;;;;;;;4.46;100.00;102155.22;7393001;19;20408;-46
2022/03/08 09:19:51;;;;;;;28.63;9.67;;;;;;;4.72;100.00;102161.72;7394072;19;20743;-46
2022/03/08 09:22:20;;;;;;;45.17;15.80;;;;;;;4.94;100.00;102161.06;7390758;19;20395;-51
2022/03/08 09:24:53;;;;;;;17.57;6.77;;;;;;;5.08;100.00;102153.69;7393776;19;20415;-46
2022/03/08 09:27:22;;;;;;;17.50;7.13;;;;;;;5.20;100.00;102153.84;7392014;19;20446;-48
2022/03/08 09:29:52;;;;;;;33.77;12.13;;;;;;;5.32;100.00;102146.34;7397950;19;20389;-45
2022/03/08 09:32:21;;;;;;;23.67;10.23;;;;;;;5.37;100.00;102155.28;7392729;19;20454;-46
2022/03/08 09:34:51;;;;;;;9.10;3.47;;;;;;;5.22;100.00;102152.28;7393537;19;20400;-46
2022/03/08 09:37:20;;;;;;;10.33;3.47;;;;;;;5.19;100.00;102140.16;7387974;19;20438;-47
2022/03/08 09:39:53;;;;;;;9.50;4.07;;;;;;;5.36;100.00;102140.69;7392949;19;20468;-49
2022/03/08 09:42:22;;;;;;;7.03;3.07;;;;;;;5.44;100.00;102134.53;7388993;19;20412;-47
2022/03/08 09:44:52;;;;;;;6.40;2.90;;;;;;;5.55;99.54;102132.91;7393507;19;20425;-47
2022/03/08 09:47:22;;;;;;;12.57;5.20;;;;;;;5.58;100.00;102133.16;7387752;19;20407;-46
2022/03/08 09:49:52;;;;;;;56.10;27.10;;;;;;;5.97;100.00;102138.03;7393273;19;20394;-49
2022/03/08 09:52:22;;;;;;;9.50;4.17;;;;;;;6.21;97.04;102134.06;7392752;19;20453;-47
2022/03/08 09:54:54;;;;;;;8.13;3.47;;;;;;;6.20;94.94;102127.13;7395402;19;20503;-45
2022/03/08 09:57:31;;;;;;;8.40;3.63;;;;;;;5.98;91.11;102125.34;7389470;19;20415;-46
2022/03/08 10:00:00;;;;;;;7.97;3.60;;;;;;;5.87;90.78;102121.91;7394158;19;20387;-46
2022/03/08 10:02:43;;;;;;;12.10;4.40;;;;;;;5.97;90.32;102121.00;7387838;19;20521;-49
2022/03/08 10:05:13;;;;;;;30.43;10.10;;;;;;;5.72;89.74;102129.22;7392388;19;20448;-47
2022/03/08 10:08:04;;;;;;;8.20;3.50;;;;;;;5.87;90.96;102123.56;7389476;19;20439;-48
2022/03/08 10:10:49;;;;;;;10.07;3.40;;;;;;;5.99;88.98;102132.25;7393065;19;20380;-51
2022/03/08 10:13:25;;;;;;;6.70;3.47;;;;;;;6.18;88.13;102123.56;7386974;19;20423;-46
2022/03/08 10:16:12;;;;;;;19.63;6.97;;;;;;;6.08;86.69;102127.94;7395082;19;20404;-48
2022/03/08 10:18:45;;;;;;;16.20;6.63;;;;;;;6.00;88.39;102128.91;7389772;19;20472;-46
2022/03/08 10:21:30;;;;;;;5.47;2.60;;;;;;;6.16;85.60;102127.66;7389146;19;20788;-46
2022/03/08 10:24:01;;;;;;;7.63;2.40;;;;;;;6.04;84.79;102125.88;7392903;19;20816;-47
2022/03/08 10:26:35;;;;;;;24.50;8.77;;;;;;;6.23;90.16;102122.25;7389261;19;20428;-47
2022/03/08 10:29:06;;;;;;;9.10;3.60;;;;;;;6.43;86.00;102121.31;7392182;19;20389;-46
2022/03/08 10:31:36;;;;;;;23.60;10.00;;;;;;;6.44;84.94;102117.06;7389721;19;20488;-49
2022/03/08 10:34:07;;;;;;;7.53;3.10;;;;;;;6.50;83.61;102112.44;7396267;19;20413;-47
2022/03/08 10:36:41;;;;;;;5.90;3.03;;;;;;;6.75;84.37;102111.81;7390815;19;20407;-46
2022/03/08 10:39:18;;;;;;;9.57;3.80;;;;;;;6.87;80.92;102115.34;7390386;19;20944;-46
2022/03/08 10:41:52;;;;;;;20.80;7.80;;;;;;;7.12;81.33;102117.28;7388707;19;20420;-46
2022/03/08 10:44:36;;;;;;;8.33;2.53;;;;;;;6.72;79.67;102109.03;7391553;19;20438;-47
2022/03/08 10:47:09;;;;;;;9.30;3.17;;;;;;;6.85;82.01;102106.66;7389900;19;20456;-46
2022/03/08 10:49:50;;;;;;;18.60;2.93;;;;;;;7.21;85.50;102100.78;7391819;19;20390;-48
2022/03/08 10:52:19;;;;;;;7.20;3.40;;;;;;;7.42;86.31;102107.59;7380357;19;20748;-51
2022/03/08 10:54:49;;;;;;;7.57;2.43;;;;;;;7.49;81.32;102108.03;7391014;19;20428;-47
2022/03/08 10:57:21;;;;;;;4.37;2.00;;;;;;;7.34;79.37;102112.91;7388652;19;20421;-46
2022/03/08 11:00:15;;;;;;;6.67;2.23;;;;;;;7.09;77.44;102106.78;7391223;19;20397;-46
2022/03/08 11:02:52;;;;;;;7.63;2.30;;;;;;;7.00;77.93;102106.06;7383559;19;21029;-46
2022/03/08 11:05:23;;;;;;;6.80;3.40;;;;;;;7.11;79.08;102100.09;7389606;19;20417;-50
2022/03/08 11:07:53;;;;;;;5.63;2.43;;;;;;;6.99;79.26;102100.00;7380964;19;20417;-49
2022/03/08 11:10:23;;;;;;;8.17;2.80;;;;;;;7.23;79.57;102094.13;7392821;19;20958;-48
2022/03/08 11:12:56;;;;;;;23.10;8.60;;;;;;;7.49;84.03;102087.50;7386953;19;20507;-45
2022/03/08 11:15:26;;;;;;;10.73;4.47;;;;;;;7.63;84.39;102091.13;7389402;19;20476;-46
2022/03/08 11:17:57;;;;;;;6.80;2.40;;;;;;;7.77;79.90;102092.13;7379955;19;20434;-48
2022/03/08 11:20:28;;;;;;;23.70;9.30;;;;;;;7.82;79.90;102080.53;7391028;19;20925;-50
2022/03/08 11:22:58;;;;;;;9.30;4.40;;;;;;;7.75;77.03;102080.84;7386686;19;20408;-48
2022/03/08 11:25:30;;;;;;;17.20;5.57;;;;;;;7.89;83.81;102075.06;7391357;19;20531;-52
2022/03/08 11:28:23;;;;;;;5.23;2.07;;;;;;;7.57;74.55;102077.03;7387590;19;20439;-48
2022/03/08 11:30:54;;;;;;;6.13;2.63;;;;;;;7.54;75.90;102079.34;7394660;19;20387;-47